sensor_id;sensor_type;location;lat;lon;timestamp;temperature;humidity
16114;DHT22;8161;-33.910;151.156;2023-06-05T11:53:18;17.70;1.00
16114;DHT22;8161;-33.910;151.156;2023-06-05T11:55:47;17.10;1.00
16114;DHT22;8161;-33.910;151.156;2023-06-05T11:58:27;17.10;99.90
16114;DHT22;8161;-33.910;151.156;2023-06-05T12:01:10;16.20;1.00
16114;DHT22;8161;-33.910;151.156;2023-06-05T12:03:42;17.20;17.50
16114;DHT22;8161;-33.910;151.156;2023-06-05T12:06:10;17.30;99.90
16114;DHT22;8161;-33.910;151.156;2023-06-05T12:08:41;17.40;1.00
16114;DHT22;8161;-33.910;151.156;2023-06-05T12:11:24;17.40;1.00
16114;DHT22;8161;-33.910;151.156;2023-06-05T12:16:42;17.50;33.10
16114;DHT22;8161;-33.910;151.156;2023-06-05T12:19:18;16.70;99.90
16114;DHT22;8161;-33.910;151.156;2023-06-05T12:21:47;17.30;54.50
16114;DHT22;8161;-33.910;151.156;2023-06-05T12:24:14;17.20;99.90
16114;DHT22;8161;-33.910;151.156;2023-06-05T12:26:52;17.10;99.90
16114;DHT22;8161;-33.910;151.156;2023-06-05T12:29:33;16.80;1.00
16114;DHT22;8161;-33.910;151.156;2023-06-05T12:32:02;17.60;1.00
16114;DHT22;8161;-33.910;151.156;2023-06-05T12:34:40;16.80;1.00
16114;DHT22;8161;-33.910;151.156;2023-06-05T12:37:21;16.80;99.90
16114;DHT22;8161;-33.910;151.156;2023-06-05T12:39:49;16.70;1.00
16114;DHT22;8161;-33.910;151.156;2023-06-05T12:42:16;16.80;1.00
16114;DHT22;8161;-33.910;151.156;2023-06-05T12:47:10;17.30;99.90
16114;DHT22;8161;-33.910;151.156;2023-06-05T12:49:38;17.30;99.90
16114;DHT22;8161;-33.910;151.156;2023-06-05T12:52:07;16.70;99.90
16114;DHT22;8161;-33.910;151.156;2023-06-05T12:54:37;17.30;99.90
16114;DHT22;8161;-33.910;151.156;2023-06-05T12:57:07;16.70;99.90
16114;DHT22;8161;-33.910;151.156;2023-06-05T13:02:03;17.40;1.00
16114;DHT22;8161;-33.910;151.156;2023-06-05T13:04:30;16.60;99.90
16114;DHT22;8161;-33.910;151.156;2023-06-05T13:06:59;16.60;99.90
16114;DHT22;8161;-33.910;151.156;2023-06-05T13:09:27;17.10;99.90
16114;DHT22;8161;-33.910;151.156;2023-06-05T13:11:55;16.70;99.90
16114;DHT22;8161;-33.910;151.156;2023-06-05T13:14:23;16.90;99.90
16114;DHT22;8161;-33.910;151.156;2023-06-05T13:16:51;17.00;99.90
16114;DHT22;8161;-33.910;151.156;2023-06-05T13:19:18;16.50;1.00
16114;DHT22;8161;-33.910;151.156;2023-06-05T13:24:14;16.70;99.90
16114;DHT22;8161;-33.910;151.156;2023-06-05T13:26:42;17.00;99.90
16114;DHT22;8161;-33.910;151.156;2023-06-05T13:29:10;16.60;1.00
16114;DHT22;8161;-33.910;151.156;2023-06-05T13:31:38;16.80;99.90
16114;DHT22;8161;-33.910;151.156;2023-06-05T13:34:05;17.10;99.90
16114;DHT22;8161;-33.910;151.156;2023-06-05T13:36:32;16.50;99.90
16114;DHT22;8161;-33.910;151.156;2023-06-05T13:39:00;16.80;99.90
16114;DHT22;8161;-33.910;151.156;2023-06-05T13:41:27;17.00;99.90
16114;DHT22;8161;-33.910;151.156;2023-06-05T13:43:59;17.00;1.00
16114;DHT22;8161;-33.910;151.156;2023-06-05T13:46:27;16.70;1.00
16114;DHT22;8161;-33.910;151.156;2023-06-05T13:51:22;16.70;99.90
16114;DHT22;8161;-33.910;151.156;2023-06-05T13:53:50;16.90;99.90
16114;DHT22;8161;-33.910;151.156;2023-06-05T13:58:47;16.90;99.90
16114;DHT22;8161;-33.910;151.156;2023-06-05T14:03:42;17.00;99.90
16114;DHT22;8161;-33.910;151.156;2023-06-05T14:06:09;17.10;99.90
16114;DHT22;8161;-33.910;151.156;2023-06-05T14:08:36;16.70;1.00
16114;DHT22;8161;-33.910;151.156;2023-06-05T14:11:03;16.80;1.00
16114;DHT22;8161;-33.910;151.156;2023-06-05T14:13:31;16.70;1.00
16114;DHT22;8161;-33.910;151.156;2023-06-05T14:15:59;16.90;1.00
16114;DHT22;8161;-33.910;151.156;2023-06-05T14:18:26;16.90;1.00
16114;DHT22;8161;-33.910;151.156;2023-06-05T14:20:53;17.10;1.00
16114;DHT22;8161;-33.910;151.156;2023-06-05T14:23:21;17.20;1.00
16114;DHT22;8161;-33.910;151.156;2023-06-05T14:25:50;16.50;1.00
16114;DHT22;8161;-33.910;151.156;2023-06-05T14:28:17;17.20;1.00
16114;DHT22;8161;-33.910;151.156;2023-06-05T14:30:48;16.70;1.00
16114;DHT22;8161;-33.910;151.156;2023-06-05T14:33:16;16.90;1.00
16114;DHT22;8161;-33.910;151.156;2023-06-05T14:35:45;16.60;1.00
16114;DHT22;8161;-33.910;151.156;2023-06-05T14:38:12;16.50;1.00
16114;DHT22;8161;-33.910;151.156;2023-06-05T14:43:08;16.50;1.00
16114;DHT22;8161;-33.910;151.156;2023-06-05T14:45:35;17.30;1.00
16114;DHT22;8161;-33.910;151.156;2023-06-05T14:48:02;16.90;1.00
16114;DHT22;8161;-33.910;151.156;2023-06-05T14:50:30;16.80;1.00
16114;DHT22;8161;-33.910;151.156;2023-06-05T14:52:57;16.80;1.00
16114;DHT22;8161;-33.910;151.156;2023-06-05T14:55:25;16.70;1.00
16114;DHT22;8161;-33.910;151.156;2023-06-05T14:57:52;16.50;1.00
16114;DHT22;8161;-33.910;151.156;2023-06-05T15:00:19;16.90;1.00
16114;DHT22;8161;-33.910;151.156;2023-06-05T15:02:47;16.90;1.00
16114;DHT22;8161;-33.910;151.156;2023-06-05T15:05:14;16.90;4.20
16114;DHT22;8161;-33.910;151.156;2023-06-05T15:07:42;16.90;22.20
16114;DHT22;8161;-33.910;151.156;2023-06-05T15:10:10;16.20;23.90
16114;DHT22;8161;-33.910;151.156;2023-06-05T15:15:07;16.50;30.00
16114;DHT22;8161;-33.910;151.156;2023-06-05T15:17:35;16.60;29.30
16114;DHT22;8161;-33.910;151.156;2023-06-05T15:20:02;16.20;29.60
16114;DHT22;8161;-33.910;151.156;2023-06-05T15:22:32;16.60;28.30
16114;DHT22;8161;-33.910;151.156;2023-06-05T15:25:00;16.80;29.70
16114;DHT22;8161;-33.910;151.156;2023-06-05T15:27:27;16.10;30.40
16114;DHT22;8161;-33.910;151.156;2023-06-05T15:29:54;16.40;33.10
16114;DHT22;8161;-33.910;151.156;2023-06-05T15:32:21;16.20;34.60
16114;DHT22;8161;-33.910;151.156;2023-06-05T15:34:48;16.50;36.60
16114;DHT22;8161;-33.910;151.156;2023-06-05T15:37:16;16.20;38.30
16114;DHT22;8161;-33.910;151.156;2023-06-05T15:39:43;16.10;38.00
16114;DHT22;8161;-33.910;151.156;2023-06-05T15:42:11;16.30;41.20
16114;DHT22;8161;-33.910;151.156;2023-06-05T15:44:38;16.30;42.80
16114;DHT22;8161;-33.910;151.156;2023-06-05T15:47:09;15.90;40.10
16114;DHT22;8161;-33.910;151.156;2023-06-05T15:49:36;15.80;45.90
16114;DHT22;8161;-33.910;151.156;2023-06-05T15:52:03;16.00;49.30
16114;DHT22;8161;-33.910;151.156;2023-06-05T15:54:31;16.00;54.70
16114;DHT22;8161;-33.910;151.156;2023-06-05T15:57:05;16.50;56.60
16114;DHT22;8161;-33.910;151.156;2023-06-05T15:59:33;15.80;63.60
16114;DHT22;8161;-33.910;151.156;2023-06-05T16:02:01;16.40;68.40
16114;DHT22;8161;-33.910;151.156;2023-06-05T16:04:29;16.50;78.10
16114;DHT22;8161;-33.910;151.156;2023-06-05T16:06:58;16.10;80.90
16114;DHT22;8161;-33.910;151.156;2023-06-05T16:09:26;16.20;83.40
16114;DHT22;8161;-33.910;151.156;2023-06-05T16:11:53;15.90;85.50
16114;DHT22;8161;-33.910;151.156;2023-06-05T16:16:48;16.10;89.60
16114;DHT22;8161;-33.910;151.156;2023-06-05T16:19:16;16.30;90.70
16114;DHT22;8161;-33.910;151.156;2023-06-05T16:21:43;16.20;91.00
16114;DHT22;8161;-33.910;151.156;2023-06-05T16:24:10;16.30;91.40
16114;DHT22;8161;-33.910;151.156;2023-06-05T16:26:38;16.10;92.30
16114;DHT22;8161;-33.910;151.156;2023-06-05T16:29:06;16.40;92.50
16114;DHT22;8161;-33.910;151.156;2023-06-05T16:31:33;16.50;92.80
16114;DHT22;8161;-33.910;151.156;2023-06-05T16:36:28;16.30;93.50
16114;DHT22;8161;-33.910;151.156;2023-06-05T16:38:56;15.90;91.70
16114;DHT22;8161;-33.910;151.156;2023-06-05T16:41:24;16.40;93.70
16114;DHT22;8161;-33.910;151.156;2023-06-05T16:43:52;16.00;94.20
16114;DHT22;8161;-33.910;151.156;2023-06-05T16:46:19;16.50;94.30
16114;DHT22;8161;-33.910;151.156;2023-06-05T16:48:49;16.10;94.30
16114;DHT22;8161;-33.910;151.156;2023-06-05T16:51:17;16.40;94.60
16114;DHT22;8161;-33.910;151.156;2023-06-05T16:53:45;15.80;94.50
16114;DHT22;8161;-33.910;151.156;2023-06-05T16:56:13;16.10;94.80
16114;DHT22;8161;-33.910;151.156;2023-06-05T16:58:41;16.30;95.40
16114;DHT22;8161;-33.910;151.156;2023-06-05T17:01:08;16.10;95.30
16114;DHT22;8161;-33.910;151.156;2023-06-05T17:08:34;16.10;95.80
16114;DHT22;8161;-33.910;151.156;2023-06-05T17:11:02;15.70;95.60
16114;DHT22;8161;-33.910;151.156;2023-06-05T17:13:30;15.80;95.80
16114;DHT22;8161;-33.910;151.156;2023-06-05T17:15:57;16.20;96.10
16114;DHT22;8161;-33.910;151.156;2023-06-05T17:18:24;16.20;96.30
16114;DHT22;8161;-33.910;151.156;2023-06-05T17:20:51;15.60;95.90
16114;DHT22;8161;-33.910;151.156;2023-06-05T17:25:46;15.50;96.10
16114;DHT22;8161;-33.910;151.156;2023-06-05T17:28:13;16.10;96.20
16114;DHT22;8161;-33.910;151.156;2023-06-05T17:30:44;15.90;96.00
16114;DHT22;8161;-33.910;151.156;2023-06-05T17:33:17;15.70;96.50
16114;DHT22;8161;-33.910;151.156;2023-06-05T17:35:44;15.80;96.60
16114;DHT22;8161;-33.910;151.156;2023-06-05T17:38:15;15.80;97.00
16114;DHT22;8161;-33.910;151.156;2023-06-05T17:43:11;15.40;96.90
16114;DHT22;8161;-33.910;151.156;2023-06-05T17:45:41;16.00;97.30
16114;DHT22;8161;-33.910;151.156;2023-06-05T17:48:09;15.30;97.30
16114;DHT22;8161;-33.910;151.156;2023-06-05T17:50:36;15.40;97.40
16114;DHT22;8161;-33.910;151.156;2023-06-05T17:53:04;15.50;97.50
16114;DHT22;8161;-33.910;151.156;2023-06-05T17:55:32;15.50;97.80
16114;DHT22;8161;-33.910;151.156;2023-06-05T17:58:00;15.60;97.80
16114;DHT22;8161;-33.910;151.156;2023-06-05T18:00:27;16.00;97.90
16114;DHT22;8161;-33.910;151.156;2023-06-05T18:02:54;15.60;97.90
16114;DHT22;8161;-33.910;151.156;2023-06-05T18:05:22;15.60;98.20
16114;DHT22;8161;-33.910;151.156;2023-06-05T18:07:49;15.50;97.80
16114;DHT22;8161;-33.910;151.156;2023-06-05T18:10:16;15.40;98.40
16114;DHT22;8161;-33.910;151.156;2023-06-05T18:12:43;15.90;98.80
16114;DHT22;8161;-33.910;151.156;2023-06-05T18:15:14;15.40;98.70
16114;DHT22;8161;-33.910;151.156;2023-06-05T18:17:41;15.20;98.50
16114;DHT22;8161;-33.910;151.156;2023-06-05T18:20:09;15.20;98.90
16114;DHT22;8161;-33.910;151.156;2023-06-05T18:22:36;15.90;99.30
16114;DHT22;8161;-33.910;151.156;2023-06-05T18:25:04;15.90;99.30
16114;DHT22;8161;-33.910;151.156;2023-06-05T18:27:34;16.00;99.30
16114;DHT22;8161;-33.910;151.156;2023-06-05T18:30:02;15.70;99.10
16114;DHT22;8161;-33.910;151.156;2023-06-05T18:32:30;15.50;99.30
16114;DHT22;8161;-33.910;151.156;2023-06-05T18:34:57;15.80;99.40
16114;DHT22;8161;-33.910;151.156;2023-06-05T18:37:24;15.50;99.60
16114;DHT22;8161;-33.910;151.156;2023-06-05T18:39:51;15.60;98.90
16114;DHT22;8161;-33.910;151.156;2023-06-05T18:42:19;15.50;99.00
16114;DHT22;8161;-33.910;151.156;2023-06-05T18:44:46;15.10;99.80
16114;DHT22;8161;-33.910;151.156;2023-06-05T18:47:13;15.50;99.90
16114;DHT22;8161;-33.910;151.156;2023-06-05T18:49:41;15.70;98.70
16114;DHT22;8161;-33.910;151.156;2023-06-05T18:52:10;15.40;99.90
16114;DHT22;8161;-33.910;151.156;2023-06-05T18:54:38;16.10;99.90
16114;DHT22;8161;-33.910;151.156;2023-06-05T18:57:05;15.70;99.90
16114;DHT22;8161;-33.910;151.156;2023-06-05T18:59:33;15.90;99.90
16114;DHT22;8161;-33.910;151.156;2023-06-05T19:02:00;15.50;99.90
16114;DHT22;8161;-33.910;151.156;2023-06-05T19:04:27;15.50;99.90
16114;DHT22;8161;-33.910;151.156;2023-06-05T19:06:54;16.00;99.90
16114;DHT22;8161;-33.910;151.156;2023-06-05T19:09:21;15.60;99.70
16114;DHT22;8161;-33.910;151.156;2023-06-05T19:11:49;15.90;99.90
16114;DHT22;8161;-33.910;151.156;2023-06-05T19:14:16;15.50;98.40
16114;DHT22;8161;-33.910;151.156;2023-06-05T19:16:44;15.50;97.80
16114;DHT22;8161;-33.910;151.156;2023-06-05T19:19:11;15.50;99.60
16114;DHT22;8161;-33.910;151.156;2023-06-05T19:24:06;15.80;99.40
16114;DHT22;8161;-33.910;151.156;2023-06-05T19:26:33;15.60;99.40
16114;DHT22;8161;-33.910;151.156;2023-06-05T19:29:01;15.80;99.30
16114;DHT22;8161;-33.910;151.156;2023-06-05T19:31:31;15.20;98.90
16114;DHT22;8161;-33.910;151.156;2023-06-05T19:33:58;15.70;99.40
16114;DHT22;8161;-33.910;151.156;2023-06-05T19:36:29;15.40;99.40
16114;DHT22;8161;-33.910;151.156;2023-06-05T19:38:56;15.30;99.20
16114;DHT22;8161;-33.910;151.156;2023-06-05T19:41:26;15.70;99.00
16114;DHT22;8161;-33.910;151.156;2023-06-05T19:43:54;15.70;99.10
16114;DHT22;8161;-33.910;151.156;2023-06-05T19:46:21;15.90;98.10
16114;DHT22;8161;-33.910;151.156;2023-06-05T19:48:52;15.80;99.20
16114;DHT22;8161;-33.910;151.156;2023-06-05T19:51:20;15.10;99.30
16114;DHT22;8161;-33.910;151.156;2023-06-05T19:56:14;15.50;99.10
16114;DHT22;8161;-33.910;151.156;2023-06-05T19:58:46;15.60;99.90
16114;DHT22;8161;-33.910;151.156;2023-06-05T20:01:15;15.50;99.80
16114;DHT22;8161;-33.910;151.156;2023-06-05T20:03:42;15.40;99.80
16114;DHT22;8161;-33.910;151.156;2023-06-05T20:06:10;15.90;99.90
16114;DHT22;8161;-33.910;151.156;2023-06-05T20:08:37;15.70;99.90
16114;DHT22;8161;-33.910;151.156;2023-06-05T20:11:04;15.40;99.90
16114;DHT22;8161;-33.910;151.156;2023-06-05T20:13:32;15.30;99.90
16114;DHT22;8161;-33.910;151.156;2023-06-05T20:15:59;15.50;99.90
16114;DHT22;8161;-33.910;151.156;2023-06-05T20:20:53;15.90;99.90
16114;DHT22;8161;-33.910;151.156;2023-06-05T20:28:15;15.50;99.90
16114;DHT22;8161;-33.910;151.156;2023-06-05T20:30:46;15.60;99.90
16114;DHT22;8161;-33.910;151.156;2023-06-05T20:33:13;15.60;99.90
16114;DHT22;8161;-33.910;151.156;2023-06-05T20:35:44;15.40;99.90
16114;DHT22;8161;-33.910;151.156;2023-06-05T20:38:13;15.70;99.90
16114;DHT22;8161;-33.910;151.156;2023-06-05T20:40:40;16.10;99.90
16114;DHT22;8161;-33.910;151.156;2023-06-05T20:43:08;15.80;99.90
16114;DHT22;8161;-33.910;151.156;2023-06-05T20:45:36;15.60;99.90
16114;DHT22;8161;-33.910;151.156;2023-06-05T20:48:08;15.20;99.90
16114;DHT22;8161;-33.910;151.156;2023-06-05T20:50:39;16.00;99.90
16114;DHT22;8161;-33.910;151.156;2023-06-05T20:53:14;15.70;99.90
16114;DHT22;8161;-33.910;151.156;2023-06-05T20:55:42;15.80;99.90
16114;DHT22;8161;-33.910;151.156;2023-06-05T21:00:36;15.30;99.90
16114;DHT22;8161;-33.910;151.156;2023-06-05T21:05:31;15.60;99.90
16114;DHT22;8161;-33.910;151.156;2023-06-05T21:07:58;15.40;99.90
16114;DHT22;8161;-33.910;151.156;2023-06-05T21:10:27;15.70;99.90
16114;DHT22;8161;-33.910;151.156;2023-06-05T21:12:54;16.00;99.90
16114;DHT22;8161;-33.910;151.156;2023-06-05T21:15:21;15.40;99.90
16114;DHT22;8161;-33.910;151.156;2023-06-05T21:17:48;15.10;99.90
16114;DHT22;8161;-33.910;151.156;2023-06-05T21:20:16;16.10;99.90
16114;DHT22;8161;-33.910;151.156;2023-06-05T21:22:43;15.50;99.90
16114;DHT22;8161;-33.910;151.156;2023-06-05T21:25:10;15.30;99.90
16114;DHT22;8161;-33.910;151.156;2023-06-05T21:27:38;15.20;99.90
16114;DHT22;8161;-33.910;151.156;2023-06-05T21:32:35;15.40;99.90
16114;DHT22;8161;-33.910;151.156;2023-06-05T21:35:03;15.70;99.90
16114;DHT22;8161;-33.910;151.156;2023-06-05T21:37:33;15.10;99.90
16114;DHT22;8161;-33.910;151.156;2023-06-05T21:40:00;15.40;99.90
16114;DHT22;8161;-33.910;151.156;2023-06-05T21:42:27;15.50;99.90
16114;DHT22;8161;-33.910;151.156;2023-06-05T21:47:22;15.50;99.90
16114;DHT22;8161;-33.910;151.156;2023-06-05T21:49:49;15.40;99.90
16114;DHT22;8161;-33.910;151.156;2023-06-05T21:52:16;15.60;99.90
16114;DHT22;8161;-33.910;151.156;2023-06-05T21:54:43;15.30;99.90
16114;DHT22;8161;-33.910;151.156;2023-06-05T21:57:11;15.50;99.90
16114;DHT22;8161;-33.910;151.156;2023-06-05T21:59:39;15.60;99.90
16114;DHT22;8161;-33.910;151.156;2023-06-05T22:02:07;15.70;99.90
16114;DHT22;8161;-33.910;151.156;2023-06-05T22:04:34;15.30;99.90
16114;DHT22;8161;-33.910;151.156;2023-06-05T22:07:02;15.90;99.90
16114;DHT22;8161;-33.910;151.156;2023-06-05T22:09:32;15.90;99.90
16114;DHT22;8161;-33.910;151.156;2023-06-05T22:12:00;15.70;99.90
16114;DHT22;8161;-33.910;151.156;2023-06-05T22:14:29;15.80;99.90
16114;DHT22;8161;-33.910;151.156;2023-06-05T22:16:57;15.90;99.90
16114;DHT22;8161;-33.910;151.156;2023-06-05T22:19:25;15.40;99.90
16114;DHT22;8161;-33.910;151.156;2023-06-05T22:21:54;15.80;99.90
16114;DHT22;8161;-33.910;151.156;2023-06-05T22:24:25;15.40;99.90
16114;DHT22;8161;-33.910;151.156;2023-06-05T22:26:52;15.50;99.90
16114;DHT22;8161;-33.910;151.156;2023-06-05T22:29:19;15.70;99.90
16114;DHT22;8161;-33.910;151.156;2023-06-05T22:31:46;16.00;99.90
16114;DHT22;8161;-33.910;151.156;2023-06-05T22:34:14;16.10;99.90
16114;DHT22;8161;-33.910;151.156;2023-06-05T22:36:41;16.30;99.90
16114;DHT22;8161;-33.910;151.156;2023-06-05T22:41:37;15.70;99.90
16114;DHT22;8161;-33.910;151.156;2023-06-05T22:44:07;16.00;99.40
16114;DHT22;8161;-33.910;151.156;2023-06-05T22:46:40;16.30;99.90
16114;DHT22;8161;-33.910;151.156;2023-06-05T22:49:07;16.60;99.90
16114;DHT22;8161;-33.910;151.156;2023-06-05T22:51:36;16.10;99.90
16114;DHT22;8161;-33.910;151.156;2023-06-05T22:54:04;16.10;99.90
16114;DHT22;8161;-33.910;151.156;2023-06-05T22:56:32;16.00;99.90
16114;DHT22;8161;-33.910;151.156;2023-06-05T22:58:59;16.00;99.90
16114;DHT22;8161;-33.910;151.156;2023-06-05T23:01:26;16.60;99.90
16114;DHT22;8161;-33.910;151.156;2023-06-05T23:03:55;16.00;99.90
16114;DHT22;8161;-33.910;151.156;2023-06-05T23:06:22;16.50;99.90
16114;DHT22;8161;-33.910;151.156;2023-06-05T23:08:56;16.60;99.90
16114;DHT22;8161;-33.910;151.156;2023-06-05T23:11:24;16.60;99.90
16114;DHT22;8161;-33.910;151.156;2023-06-05T23:16:19;16.60;99.90
16114;DHT22;8161;-33.910;151.156;2023-06-05T23:18:47;16.30;99.90
16114;DHT22;8161;-33.910;151.156;2023-06-05T23:21:14;16.50;99.90
16114;DHT22;8161;-33.910;151.156;2023-06-05T23:23:41;16.40;99.90
16114;DHT22;8161;-33.910;151.156;2023-06-05T23:26:09;16.90;99.90
16114;DHT22;8161;-33.910;151.156;2023-06-05T23:28:37;16.90;99.90
16114;DHT22;8161;-33.910;151.156;2023-06-05T23:31:04;16.70;99.90
16114;DHT22;8161;-33.910;151.156;2023-06-05T23:33:31;16.70;99.90
16114;DHT22;8161;-33.910;151.156;2023-06-05T23:35:58;17.20;99.90
16114;DHT22;8161;-33.910;151.156;2023-06-05T23:38:26;17.20;99.90
16114;DHT22;8161;-33.910;151.156;2023-06-05T23:40:53;16.90;99.90
16114;DHT22;8161;-33.910;151.156;2023-06-05T23:43:20;17.30;99.90
16114;DHT22;8161;-33.910;151.156;2023-06-05T23:45:48;17.30;99.90
16114;DHT22;8161;-33.910;151.156;2023-06-05T23:48:15;17.40;99.90
16114;DHT22;8161;-33.910;151.156;2023-06-05T23:50:42;16.80;99.90
16114;DHT22;8161;-33.910;151.156;2023-06-05T23:53:09;16.70;99.90
16114;DHT22;8161;-33.910;151.156;2023-06-05T23:55:38;17.00;99.90
16114;DHT22;8161;-33.910;151.156;2023-06-05T23:58:05;17.10;99.90
